createdAt,value
2017-08-19T00:01:18.738Z,94287.10
2017-08-19T00:03:46.664Z,94294.47
2017-08-19T00:06:14.410Z,94290.64
2017-08-19T00:08:42.117Z,94290.83
2017-08-19T00:11:09.859Z,94293.94
2017-08-19T00:13:37.579Z,94291.72
2017-08-19T00:16:05.345Z,94290.48
2017-08-19T00:18:33.101Z,94294.65
2017-08-19T00:21:00.872Z,94295.69
2017-08-19T00:23:28.568Z,94286.41
2017-08-19T00:25:56.406Z,94287.84
2017-08-19T00:28:24.117Z,94275.31
2017-08-19T00:30:51.836Z,94272.03
2017-08-19T00:33:19.622Z,94270.71
2017-08-19T00:35:47.344Z,94274.63
2017-08-19T00:38:15.976Z,94267.30
2017-08-19T00:40:43.757Z,94268.48
2017-08-19T00:43:11.465Z,94276.66
2017-08-19T00:45:39.186Z,94273.09
2017-08-19T00:48:06.949Z,94265.30
2017-08-19T00:50:34.715Z,94262.80
2017-08-19T00:53:02.474Z,94264.81
2017-08-19T00:55:30.383Z,94262.08
2017-08-19T00:57:58.096Z,94259.19
2017-08-19T01:00:25.877Z,94261.13
2017-08-19T01:02:53.581Z,94259.66
2017-08-19T01:05:21.382Z,94257.27
2017-08-19T01:07:49.236Z,94263.89
2017-08-19T01:10:16.998Z,94252.17
2017-08-19T01:12:44.770Z,94251.47
2017-08-19T01:15:12.606Z,94243.94
2017-08-19T01:17:40.369Z,94238.09
2017-08-19T01:20:08.074Z,94234.88
2017-08-19T01:22:35.880Z,94233.62
2017-08-19T01:25:15.464Z,94237.30
2017-08-19T01:27:43.275Z,94236.08
2017-08-19T01:30:10.984Z,94247.35
2017-08-19T01:32:38.681Z,94245.19
2017-08-19T01:35:06.425Z,94252.81
2017-08-19T01:37:34.173Z,94256.22
2017-08-19T01:40:01.980Z,94257.42
2017-08-19T01:42:29.715Z,94261.96
2017-08-19T01:44:57.406Z,94265.51
2017-08-19T01:47:25.166Z,94272.62
2017-08-19T01:49:52.895Z,94266.78
2017-08-19T01:52:20.593Z,94264.08
2017-08-19T01:54:48.343Z,94267.48
2017-08-19T01:57:16.135Z,94270.70
2017-08-19T01:59:43.934Z,94270.02
2017-08-19T02:02:11.656Z,94269.14
2017-08-19T02:04:39.725Z,94279.14
2017-08-19T02:07:07.477Z,94278.57
2017-08-19T02:09:35.218Z,94273.05
2017-08-19T02:12:02.992Z,94273.31
2017-08-19T02:14:30.755Z,94265.62
2017-08-19T02:16:58.483Z,94266.55
2017-08-19T02:19:26.254Z,94277.64
2017-08-19T02:21:53.938Z,94283.68
2017-08-19T02:24:21.706Z,94285.17
2017-08-19T02:26:49.467Z,94282.95
2017-08-19T02:29:17.167Z,94278.45
2017-08-19T02:31:44.957Z,94291.08
2017-08-19T02:34:12.754Z,94308.39
2017-08-19T02:36:40.467Z,94314.55
2017-08-19T02:39:08.193Z,94313.12
2017-08-19T02:41:36.033Z,94310.87
2017-08-19T02:44:03.849Z,94318.17
2017-08-19T02:46:31.586Z,94322.19
2017-08-19T02:48:59.350Z,94319.86
2017-08-19T02:51:27.176Z,94315.66
2017-08-19T02:53:54.932Z,94319.08
2017-08-19T02:56:22.666Z,94321.00
2017-08-19T02:58:50.355Z,94335.71
2017-08-19T03:01:18.059Z,94351.64
2017-08-19T03:03:45.781Z,94357.97
2017-08-19T03:06:13.471Z,94350.06
2017-08-19T03:08:41.203Z,94346.13
2017-08-19T03:11:08.893Z,94345.44
2017-08-19T03:13:36.641Z,94341.23
2017-08-19T03:16:04.379Z,94331.13
2017-08-19T03:18:32.167Z,94317.66
2017-08-19T03:20:59.888Z,94300.85
2017-08-19T03:23:28.471Z,94304.27
2017-08-19T03:25:56.266Z,94307.41
2017-08-19T03:28:23.938Z,94321.78
2017-08-19T03:30:51.713Z,94331.37
2017-08-19T03:33:19.517Z,94335.72
2017-08-19T03:35:47.296Z,94337.57
2017-08-19T03:38:15.011Z,94330.34
2017-08-19T03:40:42.763Z,94336.75
2017-08-19T03:43:10.426Z,94339.69
2017-08-19T03:45:38.184Z,94333.34
2017-08-19T03:48:05.896Z,94343.38
2017-08-19T03:50:33.639Z,94339.55
2017-08-19T03:53:01.382Z,94338.64
2017-08-19T03:55:29.181Z,94336.40
2017-08-19T03:57:56.984Z,94328.86
2017-08-19T04:00:24.853Z,94341.27
2017-08-19T04:02:52.541Z,94352.59
2017-08-19T04:05:20.243Z,94354.16
2017-08-19T04:07:48.014Z,94362.33
2017-08-19T04:10:15.761Z,94362.72
2017-08-19T04:12:43.519Z,94368.12
2017-08-19T04:15:11.312Z,94367.42
2017-08-19T04:17:39.021Z,94376.13
2017-08-19T04:20:06.788Z,94376.77
2017-08-19T04:22:34.519Z,94382.16
2017-08-19T04:25:02.209Z,94370.06
2017-08-19T04:27:30.026Z,94375.37
2017-08-19T04:29:57.713Z,94380.64
2017-08-19T04:32:25.493Z,94383.34
2017-08-19T04:34:53.381Z,94369.66
2017-08-19T04:37:21.276Z,94364.12
2017-08-19T04:39:48.991Z,94368.89
2017-08-19T04:42:16.732Z,94368.50
2017-08-19T04:44:44.565Z,94368.63
2017-08-19T04:47:12.282Z,94373.88
2017-08-19T04:49:39.977Z,94377.16
2017-08-19T04:52:07.688Z,94373.88
2017-08-19T04:54:35.467Z,94368.73
2017-08-19T04:57:03.174Z,94371.77
2017-08-19T04:59:31.209Z,94375.87
2017-08-19T05:01:58.905Z,94372.95
2017-08-19T05:04:26.576Z,94365.05
2017-08-19T05:06:54.350Z,94355.59
2017-08-19T05:09:22.047Z,94353.61
2017-08-19T05:11:49.759Z,94349.13
2017-08-19T05:14:17.529Z,94350.33
2017-08-19T05:16:45.269Z,94357.70
2017-08-19T05:19:12.973Z,94356.64
2017-08-19T05:21:40.717Z,94356.50
2017-08-19T05:24:08.440Z,94350.31
2017-08-19T05:26:36.224Z,94349.94
2017-08-19T05:29:03.931Z,94362.56
2017-08-19T05:31:31.771Z,94365.73
2017-08-19T05:33:59.492Z,94381.52
2017-08-19T05:36:27.207Z,94408.07
2017-08-19T05:38:55.021Z,94430.27
2017-08-19T05:41:22.739Z,94445.66
2017-08-19T05:43:50.472Z,94442.84
2017-08-19T05:46:18.193Z,94430.36
2017-08-19T05:48:45.951Z,94413.33
2017-08-19T05:51:13.633Z,94413.72
2017-08-19T05:53:41.478Z,94409.52
2017-08-19T05:56:09.179Z,94395.34
2017-08-19T05:58:36.947Z,94385.59
2017-08-19T06:01:04.825Z,94388.60
2017-08-19T06:03:32.587Z,94384.27
2017-08-19T06:06:00.369Z,94384.81
2017-08-19T06:08:28.180Z,94380.05
2017-08-19T06:10:55.904Z,94377.17
2017-08-19T06:13:23.704Z,94362.83
2017-08-19T06:15:51.391Z,94355.98
2017-08-19T06:18:19.224Z,94354.13
2017-08-19T06:20:46.943Z,94352.83
2017-08-19T06:23:14.725Z,94365.05
2017-08-19T06:25:42.447Z,94376.86
2017-08-19T06:28:10.227Z,94387.47
2017-08-19T06:30:37.995Z,94394.84
2017-08-19T06:33:05.741Z,94407.05
2017-08-19T06:35:34.034Z,94396.58
2017-08-19T06:38:02.592Z,94407.37
2017-08-19T06:40:30.374Z,94427.75
2017-08-19T06:42:58.073Z,94428.91
2017-08-19T06:45:25.812Z,94419.75
2017-08-19T06:47:53.573Z,94409.37
2017-08-19T06:50:21.315Z,94409.64
2017-08-19T06:52:49.140Z,94408.70
2017-08-19T06:55:16.865Z,94406.08
2017-08-19T06:57:44.660Z,94418.14
2017-08-19T07:00:12.350Z,94424.33
2017-08-19T07:02:40.150Z,94426.79
2017-08-19T07:05:07.955Z,94429.93
2017-08-19T07:07:35.685Z,94435.23
2017-08-19T07:10:03.492Z,94433.59
2017-08-19T07:12:31.269Z,94438.53
2017-08-19T07:14:58.963Z,94434.20
2017-08-19T07:17:26.661Z,94434.45
2017-08-19T07:19:54.463Z,94429.83
2017-08-19T07:22:22.165Z,94432.41
2017-08-19T07:24:50.497Z,94431.74
2017-08-19T07:27:18.227Z,94432.83
2017-08-19T07:29:46.018Z,94427.21
2017-08-19T07:32:13.785Z,94425.65
2017-08-19T07:34:41.513Z,94437.16
2017-08-19T07:37:09.240Z,94457.31
2017-08-19T07:39:37.005Z,94467.45
2017-08-19T07:42:04.720Z,94479.98
2017-08-19T07:44:32.531Z,94497.42
2017-08-19T07:47:00.469Z,94507.84
2017-08-19T07:49:28.272Z,94514.36
2017-08-19T07:51:56.082Z,94507.92
2017-08-19T07:54:23.877Z,94510.74
2017-08-19T07:56:51.659Z,94504.35
2017-08-19T07:59:19.412Z,94501.05
2017-08-19T08:01:47.131Z,94501.36
2017-08-19T08:04:14.885Z,94506.88
2017-08-19T08:06:42.615Z,94503.52
2017-08-19T08:09:10.379Z,94501.27
2017-08-19T08:11:38.096Z,94495.14
2017-08-19T08:14:05.901Z,94479.05
2017-08-19T08:16:33.695Z,94466.55
2017-08-19T08:19:01.432Z,94459.06
2017-08-19T08:21:32.974Z,94439.26
2017-08-19T08:24:00.722Z,94440.91
2017-08-19T08:26:28.491Z,94439.52
2017-08-19T08:28:56.272Z,94443.70
2017-08-19T08:31:24.022Z,94460.78
2017-08-19T08:33:51.876Z,94461.94
2017-08-19T08:36:20.473Z,94469.50
2017-08-19T08:38:48.386Z,94475.50
2017-08-19T08:41:16.175Z,94476.23
2017-08-19T08:43:43.958Z,94480.06
2017-08-19T08:46:12.083Z,94477.73
2017-08-19T08:48:39.930Z,94464.73
2017-08-19T08:51:07.741Z,94463.41
2017-08-19T08:53:35.496Z,94470.26
2017-08-19T08:56:03.335Z,94474.70
2017-08-19T08:58:31.083Z,94474.61
2017-08-19T09:00:58.958Z,94479.23
2017-08-19T09:03:26.729Z,94477.67
2017-08-19T09:05:54.453Z,94461.38
2017-08-19T09:08:22.251Z,94455.08
2017-08-19T09:10:49.997Z,94445.59
2017-08-19T09:13:17.817Z,94444.05
2017-08-19T09:15:45.548Z,94437.19
2017-08-19T09:18:13.309Z,94438.53
2017-08-19T09:20:41.216Z,94440.52
2017-08-19T09:23:08.927Z,94440.91
2017-08-19T09:25:36.726Z,94440.55
2017-08-19T09:28:04.501Z,94437.50
2017-08-19T09:30:32.496Z,94440.14
2017-08-19T09:33:00.289Z,94448.05
2017-08-19T09:35:28.086Z,94449.77
2017-08-19T09:37:55.933Z,94444.47
2017-08-19T09:40:23.680Z,94440.80
2017-08-19T09:42:51.368Z,94433.28
2017-08-19T09:45:19.136Z,94428.69
2017-08-19T09:47:47.835Z,94424.46
2017-08-19T09:50:15.593Z,94419.28
2017-08-19T09:52:43.382Z,94428.30
2017-08-19T09:55:11.145Z,94434.88
2017-08-19T09:57:38.877Z,94434.46
2017-08-19T10:00:06.637Z,94428.93
2017-08-19T10:02:34.378Z,94433.10
2017-08-19T10:05:02.106Z,94436.66
2017-08-19T10:07:29.961Z,94444.13
2017-08-19T10:09:57.743Z,94438.73
2017-08-19T10:12:25.535Z,94431.66
2017-08-19T10:14:53.256Z,94435.36
2017-08-19T10:17:21.026Z,94433.89
2017-08-19T10:19:48.778Z,94444.00
2017-08-19T10:22:16.613Z,94454.27
2017-08-19T10:24:44.346Z,94462.45
2017-08-19T10:27:12.065Z,94453.36
2017-08-19T10:29:39.869Z,94457.80
2017-08-19T10:32:08.393Z,94471.23
2017-08-19T10:34:36.122Z,94460.07
2017-08-19T10:37:03.888Z,94457.70
2017-08-19T10:39:31.694Z,94454.27
2017-08-19T10:41:59.493Z,94452.71
2017-08-19T10:44:27.277Z,94453.63
2017-08-19T10:46:56.526Z,94446.38
2017-08-19T10:49:24.325Z,94442.42
2017-08-19T10:51:52.069Z,94441.64
2017-08-19T10:54:19.759Z,94445.98
2017-08-19T10:56:47.457Z,94456.39
2017-08-19T10:59:15.246Z,94458.61
2017-08-19T11:01:42.978Z,94454.31
2017-08-19T11:04:10.751Z,94462.05
2017-08-19T11:06:38.543Z,94467.80
2017-08-19T11:09:06.260Z,94474.47
2017-08-19T11:11:34.037Z,94467.34
2017-08-19T11:14:01.765Z,94464.32
2017-08-19T11:16:29.584Z,94458.88
2017-08-19T11:18:57.359Z,94463.17
2017-08-19T11:21:25.087Z,94466.11
2017-08-19T11:23:52.850Z,94474.36
2017-08-19T11:26:20.578Z,94469.84
2017-08-19T11:28:49.106Z,94470.13
2017-08-19T11:31:16.854Z,94464.89
2017-08-19T11:33:44.609Z,94480.81
2017-08-19T11:36:12.584Z,94493.78
2017-08-19T11:38:40.382Z,94498.63
2017-08-19T11:41:08.284Z,94500.09
2017-08-19T11:43:36.217Z,94490.27
2017-08-19T11:46:03.940Z,94488.45
2017-08-19T11:48:32.928Z,94487.39
2017-08-19T11:51:00.801Z,94490.09
2017-08-19T11:53:28.521Z,94496.91
2017-08-19T11:55:56.339Z,94495.98
2017-08-19T11:58:24.262Z,94495.27
2017-08-19T12:00:52.052Z,94493.16
2017-08-19T12:03:19.897Z,94488.89
2017-08-19T12:05:47.830Z,94495.20
2017-08-19T12:08:15.737Z,94491.41
2017-08-19T12:10:43.691Z,94486.52
2017-08-19T12:13:11.483Z,94485.11
2017-08-19T12:15:39.270Z,94489.92
2017-08-19T12:18:07.232Z,94492.04
2017-08-19T12:20:35.487Z,94490.17
2017-08-19T12:23:03.258Z,94492.98
2017-08-19T12:25:31.775Z,94491.13
2017-08-19T12:27:59.613Z,94491.25
2017-08-19T12:30:27.356Z,94495.15
2017-08-19T12:32:55.144Z,94501.86
2017-08-19T12:35:22.963Z,94500.30
2017-08-19T12:37:50.675Z,94497.66
2017-08-19T12:40:18.441Z,94500.02
2017-08-19T12:42:46.141Z,94498.02
2017-08-19T12:45:14.005Z,94502.89
2017-08-19T12:47:41.776Z,94500.64
2017-08-19T12:50:10.769Z,94494.67
2017-08-19T12:52:39.620Z,94490.95
2017-08-19T12:55:07.371Z,94497.02
2017-08-19T12:57:38.180Z,94503.83
2017-08-19T13:00:05.975Z,94509.28
2017-08-19T13:02:33.802Z,94507.31
2017-08-19T13:05:01.612Z,94501.52
2017-08-19T13:07:29.464Z,94500.13
2017-08-19T13:09:57.536Z,94499.91
2017-08-19T13:12:25.399Z,94506.12
2017-08-19T13:14:53.208Z,94506.39
2017-08-19T13:17:21.177Z,94504.86
2017-08-19T13:19:48.963Z,94511.24
2017-08-19T13:22:16.719Z,94523.07
2017-08-19T13:24:44.603Z,94533.17
2017-08-19T13:27:12.387Z,94528.18
2017-08-19T13:29:40.177Z,94527.22
2017-08-19T13:32:08.699Z,94518.31
2017-08-19T13:34:36.519Z,94511.61
2017-08-19T13:37:04.774Z,94498.00
2017-08-19T13:39:32.529Z,94503.42
2017-08-19T13:42:00.314Z,94495.94
2017-08-19T13:44:28.125Z,94497.58
2017-08-19T13:46:55.908Z,94492.72
2017-08-19T13:49:23.948Z,94484.88
2017-08-19T13:51:52.871Z,94479.23
2017-08-19T13:54:21.548Z,94477.16
2017-08-19T13:56:50.310Z,94484.48
2017-08-19T13:59:18.185Z,94483.08
2017-08-19T14:01:45.987Z,94482.95
2017-08-19T14:04:13.949Z,94481.06
2017-08-19T14:06:41.770Z,94476.31
2017-08-19T14:09:09.639Z,94477.80
2017-08-19T14:11:38.049Z,94475.25
2017-08-19T14:14:06.504Z,94480.97
2017-08-19T14:16:34.236Z,94482.19
2017-08-19T14:19:02.033Z,94484.17
2017-08-19T14:21:30.171Z,94485.19
2017-08-19T14:23:57.992Z,94491.49
2017-08-19T14:26:25.813Z,94486.65
2017-08-19T14:28:53.568Z,94482.31
2017-08-19T14:31:22.617Z,94476.79
2017-08-19T14:33:50.771Z,94489.34
2017-08-19T14:36:18.767Z,94501.08
2017-08-19T14:38:46.519Z,94500.13
2017-08-19T14:41:15.255Z,94500.16
2017-08-19T14:43:44.391Z,94507.09
2017-08-19T14:46:12.148Z,94506.22
2017-08-19T14:48:39.905Z,94504.22
2017-08-19T14:51:07.735Z,94497.98
2017-08-19T14:53:35.737Z,94507.55
2017-08-19T14:56:03.562Z,94499.47
2017-08-19T14:58:31.374Z,94490.75
2017-08-19T15:00:59.290Z,94488.94
2017-08-19T15:03:27.013Z,94489.41
2017-08-19T15:05:54.962Z,94491.42
2017-08-19T15:08:23.603Z,94502.62
2017-08-19T15:10:51.368Z,94517.03
2017-08-19T15:13:19.301Z,94538.17
2017-08-19T15:15:47.129Z,94570.08
2017-08-19T15:18:14.875Z,94594.88
2017-08-19T15:20:43.812Z,94615.95
2017-08-19T15:23:12.172Z,94633.92
2017-08-19T15:25:41.199Z,94621.64
2017-08-19T15:28:09.974Z,94622.00
2017-08-19T15:30:38.560Z,94629.09
2017-08-19T15:33:06.327Z,94637.71
2017-08-19T15:35:34.196Z,94643.70
2017-08-19T15:38:02.106Z,94653.80
2017-08-19T15:40:29.921Z,94652.20
2017-08-19T15:42:57.784Z,94652.81
2017-08-19T15:45:25.608Z,94649.11
2017-08-19T15:47:53.413Z,94638.89
2017-08-19T15:50:21.160Z,94626.89
2017-08-19T15:52:49.485Z,94612.22
2017-08-19T15:55:17.445Z,94612.39
2017-08-19T15:57:45.320Z,94617.12
2017-08-19T16:00:14.929Z,94609.97
2017-08-19T16:02:42.682Z,94597.80
2017-08-19T16:05:10.592Z,94584.56
2017-08-19T16:07:38.311Z,94567.63
2017-08-19T16:10:06.055Z,94565.56
2017-08-19T16:12:34.353Z,94570.53
2017-08-19T16:15:02.296Z,94578.16
2017-08-19T16:17:30.046Z,94586.20
2017-08-19T16:19:57.869Z,94576.59
2017-08-19T16:22:25.653Z,94568.39
2017-08-19T16:24:53.434Z,94582.23
2017-08-19T16:27:21.218Z,94592.33
2017-08-19T16:29:49.060Z,94597.62
2017-08-19T16:32:16.895Z,94587.09
2017-08-19T16:34:44.736Z,94580.41
2017-08-19T16:37:13.233Z,94576.88
2017-08-19T16:39:41.014Z,94587.57
2017-08-19T16:42:08.779Z,94608.86
2017-08-19T16:44:36.572Z,94630.87
2017-08-19T16:47:04.358Z,94633.84
2017-08-19T16:49:32.123Z,94635.20
2017-08-19T16:52:02.332Z,94629.03
2017-08-19T16:54:30.067Z,94633.53
2017-08-19T16:56:57.916Z,94642.29
2017-08-19T16:59:25.744Z,94647.45
2017-08-19T17:01:53.583Z,94651.44
2017-08-19T17:04:21.411Z,94642.94
2017-08-19T17:06:49.176Z,94629.86
2017-08-19T17:09:16.986Z,94630.98
2017-08-19T17:11:44.786Z,94639.00
2017-08-19T17:14:13.768Z,94635.03
2017-08-19T17:16:41.581Z,94623.52
2017-08-19T17:19:10.360Z,94624.25
2017-08-19T17:21:38.141Z,94625.32
2017-08-19T17:24:05.955Z,94632.20
2017-08-19T17:26:33.787Z,94621.44
2017-08-19T17:29:02.434Z,94609.02
2017-08-19T17:31:30.190Z,94617.78
2017-08-19T17:33:58.003Z,94626.39
2017-08-19T17:36:25.794Z,94630.57
2017-08-19T17:38:53.726Z,94636.98
2017-08-19T17:41:21.486Z,94642.39
2017-08-19T17:43:49.259Z,94646.42
2017-08-19T17:46:17.096Z,94639.81
2017-08-19T17:48:44.877Z,94639.64
2017-08-19T17:51:12.707Z,94644.08
2017-08-19T17:53:40.564Z,94652.87
2017-08-19T17:56:08.266Z,94662.69
2017-08-19T17:58:36.689Z,94666.05
2017-08-19T18:01:04.423Z,94667.81
2017-08-19T18:03:32.278Z,94662.52
2017-08-19T18:06:00.029Z,94662.61
2017-08-19T18:08:27.819Z,94662.69
2017-08-19T18:10:55.674Z,94661.02
2017-08-19T18:13:23.409Z,94668.18
2017-08-19T18:15:51.121Z,94674.10
2017-08-19T18:18:18.886Z,94692.05
2017-08-19T18:20:46.917Z,94688.23
2017-08-19T18:23:14.671Z,94693.52
2017-08-19T18:25:43.426Z,94700.51
2017-08-19T18:28:11.389Z,94710.05
2017-08-19T18:30:40.383Z,94721.37
2017-08-19T18:33:08.174Z,94728.72
2017-08-19T18:35:36.195Z,94725.86
2017-08-19T18:38:04.198Z,94719.96
2017-08-19T18:40:33.979Z,94706.19
2017-08-19T18:43:02.328Z,94695.13
2017-08-19T18:45:30.441Z,94696.58
2017-08-19T18:47:58.232Z,94704.51
2017-08-19T18:50:26.008Z,94719.45
2017-08-19T18:52:53.856Z,94723.06
2017-08-19T18:55:21.610Z,94721.56
2017-08-19T18:57:49.335Z,94718.25
2017-08-19T19:00:17.098Z,94729.30
2017-08-19T19:02:44.947Z,94724.29
2017-08-19T19:05:12.711Z,94725.19
2017-08-19T19:07:40.480Z,94724.67
2017-08-19T19:10:08.216Z,94731.06
2017-08-19T19:12:36.077Z,94718.20
2017-08-19T19:15:03.868Z,94710.28
2017-08-19T19:17:31.684Z,94703.23
2017-08-19T19:19:59.540Z,94693.07
2017-08-19T19:22:27.385Z,94690.04
2017-08-19T19:24:55.291Z,94692.59
2017-08-19T19:27:23.132Z,94696.19
2017-08-19T19:29:50.947Z,94702.68
2017-08-19T19:32:18.758Z,94708.08
2017-08-19T19:34:46.723Z,94711.16
2017-08-19T19:37:14.462Z,94705.23
2017-08-19T19:39:42.299Z,94708.77
2017-08-19T19:42:10.348Z,94719.00
2017-08-19T19:44:38.121Z,94700.59
2017-08-19T19:47:06.064Z,94687.57
2017-08-19T19:49:33.936Z,94692.12
2017-08-19T19:52:01.905Z,94701.34
2017-08-19T19:54:29.622Z,94699.85
2017-08-19T19:56:57.495Z,94705.64
2017-08-19T19:59:25.369Z,94696.41
2017-08-19T20:01:53.174Z,94693.34
2017-08-19T20:04:22.383Z,94701.91
2017-08-19T20:06:50.239Z,94703.66
2017-08-19T20:09:18.088Z,94702.19
2017-08-19T20:11:45.924Z,94710.89
2017-08-19T20:14:13.727Z,94709.12
2017-08-19T20:16:42.203Z,94703.73
2017-08-19T20:19:10.060Z,94698.08
2017-08-19T20:21:37.845Z,94691.33
2017-08-19T20:45:08.243Z,94696.76
2017-08-19T20:47:36.007Z,94689.20
2017-08-19T20:50:03.767Z,94692.49
2017-08-19T20:52:31.546Z,94686.05
2017-08-19T20:54:59.567Z,94682.52
2017-08-19T20:57:27.295Z,94682.52
2017-08-19T20:59:55.059Z,94674.08
2017-08-19T21:02:22.775Z,94668.56
2017-08-19T21:04:50.495Z,94666.63
2017-08-19T21:07:18.296Z,94665.52
2017-08-19T21:09:46.024Z,94671.06
2017-08-19T21:12:13.726Z,94670.85
2017-08-19T21:14:41.495Z,94675.06
2017-08-19T21:17:09.248Z,94675.73
2017-08-19T21:19:37.945Z,94674.02
2017-08-19T21:22:05.766Z,94677.71
2017-08-19T21:24:33.545Z,94678.16
2017-08-19T21:27:01.233Z,94667.75
2017-08-19T21:29:29.009Z,94662.50
2017-08-19T21:31:56.761Z,94657.37
2017-08-19T21:34:24.480Z,94656.88
2017-08-19T21:36:52.246Z,94657.95
2017-08-19T21:39:19.961Z,94657.55
2017-08-19T21:41:47.715Z,94642.05
2017-08-19T21:44:15.467Z,94629.47
2017-08-19T21:46:43.242Z,94636.52
2017-08-19T21:49:11.102Z,94626.22
2017-08-19T21:51:38.945Z,94627.50
2017-08-19T21:54:06.722Z,94621.45
2017-08-19T21:56:34.482Z,94622.67
2017-08-19T21:59:02.311Z,94619.41
2017-08-19T22:01:30.091Z,94618.33
2017-08-19T22:03:57.875Z,94615.91
2017-08-19T22:06:25.620Z,94632.11
2017-08-19T22:08:53.392Z,94631.19
2017-08-19T22:11:21.132Z,94621.70
2017-08-19T22:13:48.906Z,94621.23
2017-08-19T22:16:16.599Z,94627.02
2017-08-19T22:18:44.426Z,94624.80
2017-08-19T22:21:12.262Z,94623.62
2017-08-19T22:23:40.144Z,94630.09
2017-08-19T22:26:07.900Z,94636.24
2017-08-19T22:28:35.676Z,94638.69
2017-08-19T22:31:03.424Z,94645.53
2017-08-19T22:33:31.206Z,94648.83
2017-08-19T22:35:58.986Z,94655.48
2017-08-19T22:38:26.696Z,94656.09
2017-08-19T22:40:54.466Z,94661.85
2017-08-19T22:43:22.251Z,94662.13
2017-08-19T22:45:49.990Z,94661.56
2017-08-19T22:48:17.716Z,94653.48
2017-08-19T22:50:45.599Z,94654.73
2017-08-19T22:53:13.384Z,94644.14
2017-08-19T22:55:41.389Z,94639.32
2017-08-19T22:58:09.138Z,94641.48
2017-08-19T23:00:36.905Z,94641.76
2017-08-19T23:03:04.661Z,94660.02
2017-08-19T23:05:32.464Z,94648.98
2017-08-19T23:08:00.219Z,94650.17
2017-08-19T23:10:27.981Z,94636.03
2017-08-19T23:12:55.761Z,94635.58
2017-08-19T23:15:24.543Z,94633.01
2017-08-19T23:17:52.296Z,94625.39
2017-08-19T23:20:20.017Z,94626.01
2017-08-19T23:22:47.743Z,94628.63
2017-08-19T23:25:15.578Z,94638.46
2017-08-19T23:27:44.130Z,94655.52
2017-08-19T23:30:12.084Z,94668.04
2017-08-19T23:32:39.816Z,94664.11
2017-08-19T23:35:07.595Z,94649.72
2017-08-19T23:37:35.399Z,94645.08
2017-08-19T23:40:04.111Z,94642.16
2017-08-19T23:42:31.899Z,94641.38
2017-08-19T23:44:59.656Z,94655.70
2017-08-19T23:47:27.378Z,94657.17
2017-08-19T23:49:56.301Z,94669.25
2017-08-19T23:52:24.037Z,94672.75
2017-08-19T23:54:51.762Z,94677.09
2017-08-19T23:57:19.602Z,94678.66
2017-08-19T23:59:47.377Z,94687.95
